Time;durP1;ratioP1;P1;durP2;ratioP2;P2;SDS_P1;SDS_P2;PMS_P1;PMS_P2;Temp;Humidity;BMP_temperature;BMP_pressure;BME280_temperature;BME280_humidity;BME280_pressure;Samples;Min_cycle;Max_cycle;Signal;HPM_P1;HPM_P2
2023/08/06 00:00:59;;;;;;;39.35;21.88;;;;;;;;;;4971860;28;20125;-59
2023/08/06 00:03:25;;;;;;;27.48;20.73;;;;;;;;;;4971670;28;20023;-59
2023/08/06 00:05:51;;;;;;;29.65;21.15;;;;;;;;;;4971546;28;20045;-61
2023/08/06 00:08:17;;;;;;;28.73;21.67;;;;;;;;;;4972757;28;20027;-60
2023/08/06 00:10:43;;;;;;;27.20;19.67;;;;;;;;;;4971521;28;20026;-59
2023/08/06 00:13:09;;;;;;;27.35;20.90;;;;;;;;;;4973180;28;20355;-61
2023/08/06 00:15:35;;;;;;;30.25;21.30;;;;;;;;;;4973209;28;20027;-60
2023/08/06 00:18:01;;;;;;;27.02;20.27;;;;;;;;;;4972067;28;20038;-59
2023/08/06 00:20:27;;;;;;;27.15;20.33;;;;;;;;;;4973780;28;20026;-59
2023/08/06 00:22:53;;;;;;;30.63;21.02;;;;;;;;;;4973490;28;20444;-60
2023/08/06 00:25:19;;;;;;;27.02;20.83;;;;;;;;;;4973216;28;20031;-61
2023/08/06 00:27:45;;;;;;;27.80;20.55;;;;;;;;;;4973246;28;20354;-60
2023/08/06 00:30:11;;;;;;;27.15;20.88;;;;;;;;;;4972820;28;20031;-61
2023/08/06 00:32:37;;;;;;;27.40;20.50;;;;;;;;;;4972577;28;20027;-60
2023/08/06 00:35:04;;;;;;;25.63;20.95;;;;;;;;;;4971273;28;20033;-61
2023/08/06 00:37:30;;;;;;;24.77;18.40;;;;;;;;;;4971232;28;20156;-59
2023/08/06 00:39:56;;;;;;;27.92;21.00;;;;;;;;;;4971696;28;20045;-59
2023/08/06 00:42:22;;;;;;;25.95;19.70;;;;;;;;;;4972960;28;20054;-60
2023/08/06 00:44:48;;;;;;;24.27;18.80;;;;;;;;;;4970838;28;20019;-58
2023/08/06 00:47:14;;;;;;;24.60;18.98;;;;;;;;;;4972574;28;20098;-58
2023/08/06 00:49:40;;;;;;;27.92;21.15;;;;;;;;;;4972699;28;20030;-60
2023/08/06 00:52:07;;;;;;;28.58;19.60;;;;;;;;;;4972685;28;20050;-60
2023/08/06 00:54:35;;;;;;;26.77;20.05;;;;;;;;;;4972781;28;20150;-60
2023/08/06 00:57:02;;;;;;;27.85;20.98;;;;;;;;;;4972647;28;20143;-59
2023/08/06 00:59:28;;;;;;;27.05;20.05;;;;;;;;;;4971294;28;20031;-59
2023/08/06 01:01:54;;;;;;;27.05;20.88;;;;;;;;;;4970769;28;20031;-59
2023/08/06 01:04:20;;;;;;;25.98;21.17;;;;;;;;;;4971837;28;20035;-59
2023/08/06 01:06:46;;;;;;;25.38;20.20;;;;;;;;;;4971938;28;20087;-59
2023/08/06 01:09:28;;;;;;;25.42;20.25;;;;;;;;;;4972157;28;20051;-59
2023/08/06 01:12:07;;;;;;;27.55;20.17;;;;;;;;;;4972262;28;20074;-60
2023/08/06 01:14:48;;;;;;;26.75;19.90;;;;;;;;;;4972116;28;20027;-60
2023/08/06 01:17:14;;;;;;;25.55;19.98;;;;;;;;;;4973501;28;20035;-60
2023/08/06 01:19:40;;;;;;;26.67;20.98;;;;;;;;;;4973946;28;20031;-60
2023/08/06 01:22:06;;;;;;;29.08;21.38;;;;;;;;;;4974021;28;20033;-59
2023/08/06 01:24:32;;;;;;;25.73;19.60;;;;;;;;;;4972860;28;20029;-59
2023/08/06 01:27:04;;;;;;;24.88;20.48;;;;;;;;;;4970987;28;20696;-62
2023/08/06 01:29:53;;;;;;;25.25;19.95;;;;;;;;;;4963444;28;20108;-60
2023/08/06 01:32:19;;;;;;;;;;;;;;;;;;4973382;28;20080;-60
2023/08/06 01:34:45;;;;;;;23.88;18.85;;;;;;;;;;4972834;28;19969;-57
2023/08/06 01:37:11;;;;;;;27.10;19.02;;;;;;;;;;4972693;28;20518;-60
2023/08/06 01:39:37;;;;;;;28.27;19.63;;;;;;;;;;4973182;28;20456;-59
2023/08/06 01:42:04;;;;;;;25.33;18.98;;;;;;;;;;4972441;28;20026;-54
2023/08/06 01:44:30;;;;;;;28.10;19.05;;;;;;;;;;4972805;28;20018;-59
2023/08/06 01:46:56;;;;;;;25.13;18.73;;;;;;;;;;4972379;28;20058;-59
2023/08/06 01:49:22;;;;;;;23.88;18.30;;;;;;;;;;4972332;28;20084;-59
2023/08/06 01:51:48;;;;;;;24.30;18.42;;;;;;;;;;4972882;28;20383;-59
2023/08/06 01:54:14;;;;;;;25.70;19.63;;;;;;;;;;4972320;28;20122;-59
2023/08/06 01:56:40;;;;;;;26.13;18.73;;;;;;;;;;4970398;28;20027;-59
2023/08/06 01:59:06;;;;;;;29.02;19.30;;;;;;;;;;4971791;28;20027;-57
2023/08/06 02:01:32;;;;;;;25.42;19.52;;;;;;;;;;4971411;28;20053;-58
2023/08/06 02:03:57;;;;;;;27.38;19.67;;;;;;;;;;4971343;28;20028;-59
2023/08/06 02:06:23;;;;;;;24.98;18.40;;;;;;;;;;4970061;28;20019;-60
2023/08/06 02:08:49;;;;;;;24.92;18.88;;;;;;;;;;4971196;28;20114;-60
2023/08/06 02:11:15;;;;;;;26.60;19.30;;;;;;;;;;4971846;28;20023;-59
2023/08/06 02:13:41;;;;;;;26.13;18.70;;;;;;;;;;4970422;28;20562;-60
2023/08/06 02:16:11;;;;;;;25.17;19.15;;;;;;;;;;4971292;28;20041;-59
2023/08/06 02:18:37;;;;;;;27.63;18.25;;;;;;;;;;4969732;28;20058;-60
2023/08/06 02:21:03;;;;;;;28.38;18.92;;;;;;;;;;4971382;28;20019;-58
2023/08/06 02:23:29;;;;;;;22.52;17.58;;;;;;;;;;4971428;28;20076;-58
2023/08/06 02:26:01;;;;;;;25.80;18.00;;;;;;;;;;4971025;28;20521;-59
2023/08/06 02:28:27;;;;;;;23.77;17.58;;;;;;;;;;4969156;28;20068;-57
2023/08/06 02:30:53;;;;;;;25.20;17.95;;;;;;;;;;4971287;28;20031;-58
2023/08/06 02:33:19;;;;;;;25.85;18.63;;;;;;;;;;4971523;28;20530;-59
2023/08/06 02:35:45;;;;;;;27.55;18.60;;;;;;;;;;4970919;28;20034;-60
2023/08/06 02:38:11;;;;;;;24.88;17.90;;;;;;;;;;4971253;28;20030;-60
2023/08/06 02:40:37;;;;;;;24.63;17.48;;;;;;;;;;4971349;28;20125;-60
2023/08/06 02:43:03;;;;;;;25.15;18.73;;;;;;;;;;4971434;28;20054;-60
2023/08/06 02:45:29;;;;;;;24.02;17.45;;;;;;;;;;4971385;28;20023;-57
2023/08/06 02:47:55;;;;;;;24.42;17.73;;;;;;;;;;4971515;28;20037;-59
2023/08/06 02:50:21;;;;;;;26.45;18.52;;;;;;;;;;4971813;28;20030;-58
2023/08/06 02:52:47;;;;;;;25.23;17.20;;;;;;;;;;4971494;28;20035;-59
2023/08/06 02:55:13;;;;;;;24.75;17.23;;;;;;;;;;4970052;28;20019;-59
2023/08/06 02:57:39;;;;;;;27.20;18.25;;;;;;;;;;4969969;28;20034;-59
2023/08/06 03:00:06;;;;;;;24.60;16.58;;;;;;;;;;4971436;28;20063;-58
2023/08/06 03:02:32;;;;;;;24.73;16.35;;;;;;;;;;4969976;28;20015;-60
2023/08/06 03:04:58;;;;;;;23.33;16.60;;;;;;;;;;4971162;28;20486;-60
2023/08/06 03:07:24;;;;;;;22.88;16.77;;;;;;;;;;4971277;28;20164;-59
2023/08/06 03:09:50;;;;;;;25.63;17.60;;;;;;;;;;4970157;28;20026;-59
2023/08/06 03:12:15;;;;;;;24.88;17.75;;;;;;;;;;4971412;28;20023;-59
2023/08/06 03:14:42;;;;;;;23.85;16.90;;;;;;;;;;4971291;28;20360;-57
2023/08/06 03:17:08;;;;;;;22.95;17.17;;;;;;;;;;4971639;28;20029;-59
2023/08/06 03:19:34;;;;;;;24.65;17.77;;;;;;;;;;4971478;28;20058;-59
2023/08/06 03:22:00;;;;;;;23.05;16.83;;;;;;;;;;4971668;28;20015;-59
2023/08/06 03:24:26;;;;;;;25.02;17.67;;;;;;;;;;4970348;28;20281;-57
2023/08/06 03:26:52;;;;;;;22.65;17.75;;;;;;;;;;4972274;28;20023;-58
2023/08/06 03:29:18;;;;;;;22.77;17.70;;;;;;;;;;4972365;28;20061;-59
2023/08/06 03:31:44;;;;;;;22.02;16.85;;;;;;;;;;4971733;28;20022;-63
2023/08/06 03:34:10;;;;;;;23.92;17.17;;;;;;;;;;4971591;28;20023;-60
2023/08/06 03:36:36;;;;;;;24.42;17.08;;;;;;;;;;4971668;28;20026;-59
2023/08/06 03:39:02;;;;;;;22.52;16.73;;;;;;;;;;4973324;28;20129;-59
2023/08/06 03:41:28;;;;;;;23.58;17.02;;;;;;;;;;4974823;28;20023;-59
2023/08/06 03:43:54;;;;;;;24.25;17.42;;;;;;;;;;4972842;28;20025;-59
2023/08/06 03:46:20;;;;;;;23.45;17.10;;;;;;;;;;4973610;28;20023;-58
2023/08/06 03:48:46;;;;;;;22.33;16.48;;;;;;;;;;4975108;28;20515;-60
2023/08/06 03:51:12;;;;;;;23.65;17.10;;;;;;;;;;4974998;28;20031;-60
2023/08/06 03:53:38;;;;;;;23.63;17.45;;;;;;;;;;4973377;28;20034;-58
2023/08/06 03:56:04;;;;;;;22.98;16.42;;;;;;;;;;4974477;28;20022;-59
2023/08/06 03:58:30;;;;;;;23.27;16.92;;;;;;;;;;4974394;28;20029;-60
2023/08/06 04:01:00;;;;;;;22.38;16.20;;;;;;;;;;4975014;28;20034;-59
2023/08/06 04:03:26;;;;;;;23.48;17.52;;;;;;;;;;4974620;28;20015;-60
2023/08/06 04:05:53;;;;;;;22.88;17.30;;;;;;;;;;4974236;28;20031;-60
2023/08/06 04:08:18;;;;;;;23.95;17.20;;;;;;;;;;4974978;28;20031;-58
2023/08/06 04:10:44;;;;;;;26.98;17.73;;;;;;;;;;4974811;28;20025;-60
2023/08/06 04:13:10;;;;;;;25.17;17.35;;;;;;;;;;4974553;28;20061;-60
2023/08/06 04:15:36;;;;;;;26.70;17.90;;;;;;;;;;4974361;28;20027;-60
2023/08/06 04:18:02;;;;;;;20.08;15.93;;;;;;;;;;4974618;28;20027;-59
2023/08/06 04:20:28;;;;;;;24.63;16.13;;;;;;;;;;4973720;28;20023;-60
2023/08/06 04:22:55;;;;;;;22.08;16.42;;;;;;;;;;4974775;28;20034;-60
2023/08/06 04:25:21;;;;;;;21.95;16.63;;;;;;;;;;4974191;28;20046;-59
2023/08/06 04:27:48;;;;;;;23.40;16.80;;;;;;;;;;4974527;28;20459;-59
2023/08/06 04:30:14;;;;;;;23.00;16.05;;;;;;;;;;4974968;28;20081;-60
2023/08/06 04:32:40;;;;;;;20.23;15.80;;;;;;;;;;4975265;28;20029;-60
2023/08/06 04:35:06;;;;;;;23.88;21.33;;;;;;;;;;4974976;28;20455;-61
2023/08/06 04:37:32;;;;;;;21.27;16.92;;;;;;;;;;4975105;28;20067;-60
2023/08/06 04:39:58;;;;;;;24.10;16.20;;;;;;;;;;4974549;28;20022;-59
2023/08/06 04:42:25;;;;;;;23.75;17.45;;;;;;;;;;4975182;28;20019;-59
2023/08/06 04:44:51;;;;;;;21.55;17.27;;;;;;;;;;4974799;28;20072;-60
2023/08/06 04:47:17;;;;;;;23.38;17.85;;;;;;;;;;4974914;28;20019;-59
2023/08/06 04:49:43;;;;;;;25.67;18.23;;;;;;;;;;4974593;28;20035;-57
2023/08/06 04:52:09;;;;;;;24.63;17.80;;;;;;;;;;4975639;28;20347;-60
2023/08/06 04:54:34;;;;;;;24.15;17.48;;;;;;;;;;4975315;28;20023;-59
2023/08/06 04:57:00;;;;;;;24.88;18.13;;;;;;;;;;4975049;28;20033;-58
2023/08/06 04:59:26;;;;;;;21.90;16.95;;;;;;;;;;4973418;28;20084;-60
2023/08/06 05:01:52;;;;;;;20.60;14.98;;;;;;;;;;4975522;28;20420;-58
2023/08/06 05:04:18;;;;;;;22.35;16.45;;;;;;;;;;4973414;28;20114;-59
2023/08/06 05:06:44;;;;;;;20.10;15.55;;;;;;;;;;4974553;28;20059;-59
2023/08/06 05:09:10;;;;;;;21.55;15.60;;;;;;;;;;4974491;28;20015;-60
2023/08/06 05:11:36;;;;;;;23.27;15.30;;;;;;;;;;4972606;28;20030;-59
2023/08/06 05:14:02;;;;;;;20.23;14.52;;;;;;;;;;4976411;28;20045;-60
2023/08/06 05:16:29;;;;;;;21.05;15.57;;;;;;;;;;4974432;28;20513;-60
2023/08/06 05:18:55;;;;;;;20.17;14.85;;;;;;;;;;4973019;28;20691;-59
2023/08/06 05:21:21;;;;;;;20.52;14.98;;;;;;;;;;4974054;28;20023;-59
2023/08/06 05:23:46;;;;;;;21.58;15.82;;;;;;;;;;4973288;28;20026;-61
2023/08/06 05:26:14;;;;;;;19.92;15.68;;;;;;;;;;4972947;28;20034;-59
2023/08/06 05:28:41;;;;;;;24.10;16.95;;;;;;;;;;4974474;28;20046;-59
2023/08/06 05:31:07;;;;;;;23.08;15.02;;;;;;;;;;4974463;28;20022;-59
2023/08/06 05:33:33;;;;;;;25.55;15.45;;;;;;;;;;4974142;28;20132;-58
2023/08/06 05:35:59;;;;;;;20.00;14.65;;;;;;;;;;4973982;28;20030;-60
2023/08/06 05:38:25;;;;;;;20.77;14.10;;;;;;;;;;4986050;22;20050;-56
2023/08/06 05:40:51;;;;;;;20.90;13.82;;;;;;;;;;4971132;28;20092;-55
2023/08/06 05:43:17;;;;;;;20.50;15.48;;;;;;;;;;4971186;28;20014;-53
2023/08/06 05:45:49;;;;;;;20.50;14.10;;;;;;;;;;4993194;28;20021;-57
2023/08/06 05:48:15;;;;;;;20.75;14.38;;;;;;;;;;5072338;28;20017;-55
2023/08/06 05:50:41;;;;;;;20.92;13.57;;;;;;;;;;5072420;28;20047;-57
2023/08/06 05:53:07;;;;;;;19.30;13.65;;;;;;;;;;5072584;28;20020;-57
2023/08/06 05:55:33;;;;;;;23.85;14.93;;;;;;;;;;5072196;28;20529;-57
2023/08/06 05:57:59;;;;;;;20.33;13.27;;;;;;;;;;5072624;28;20028;-58
2023/08/06 06:00:25;;;;;;;21.30;12.95;;;;;;;;;;5072351;28;20029;-56
2023/08/06 06:02:51;;;;;;;19.45;12.75;;;;;;;;;;5072093;28;20024;-56
2023/08/06 06:05:17;;;;;;;19.10;12.63;;;;;;;;;;5072075;28;20017;-57
2023/08/06 06:07:43;;;;;;;20.00;12.20;;;;;;;;;;5072252;28;20038;-56
2023/08/06 06:10:10;;;;;;;18.08;12.02;;;;;;;;;;5072028;28;20016;-58
2023/08/06 06:12:35;;;;;;;17.73;11.68;;;;;;;;;;5070691;28;20024;-57
2023/08/06 06:15:03;;;;;;;18.42;11.90;;;;;;;;;;5071884;28;20373;-57
2023/08/06 06:17:29;;;;;;;17.73;12.07;;;;;;;;;;5072021;28;20036;-57
2023/08/06 06:19:55;;;;;;;19.92;11.73;;;;;;;;;;5071962;28;20033;-58
2023/08/06 06:22:21;;;;;;;21.77;12.15;;;;;;;;;;5071840;28;20032;-55
2023/08/06 06:24:47;;;;;;;22.70;15.93;;;;;;;;;;5070291;28;20472;-57
2023/08/06 06:27:13;;;;;;;19.67;12.40;;;;;;;;;;5071986;28;20364;-58
2023/08/06 06:29:39;;;;;;;18.45;11.25;;;;;;;;;;5071755;28;20016;-57
2023/08/06 06:32:05;;;;;;;17.02;10.98;;;;;;;;;;5071728;28;20073;-57
2023/08/06 06:34:31;;;;;;;18.48;11.02;;;;;;;;;;4989699;28;20063;-58
2023/08/06 06:36:57;;;;;;;19.58;11.40;;;;;;;;;;4967008;28;20058;-56
2023/08/06 06:39:23;;;;;;;20.20;12.52;;;;;;;;;;4968186;28;20041;-56
2023/08/06 06:41:49;;;;;;;18.15;10.95;;;;;;;;;;4970226;28;20035;-54
2023/08/06 06:44:15;;;;;;;17.80;10.75;;;;;;;;;;4970024;28;20030;-50
2023/08/06 06:46:41;;;;;;;18.88;10.13;;;;;;;;;;4969272;28;20030;-56
2023/08/06 06:49:07;;;;;;;18.98;10.10;;;;;;;;;;4970357;28;20072;-54
2023/08/06 06:51:33;;;;;;;17.67;10.15;;;;;;;;;;4970315;28;20115;-54
2023/08/06 06:53:59;;;;;;;17.35;9.40;;;;;;;;;;4970071;28;20023;-57
2023/08/06 06:56:25;;;;;;;20.38;11.50;;;;;;;;;;4969781;28;20025;-55
2023/08/06 06:58:51;;;;;;;19.83;11.25;;;;;;;;;;4970098;28;20026;-55
2023/08/06 07:01:17;;;;;;;17.80;10.52;;;;;;;;;;4969887;28;20481;-55
2023/08/06 07:03:43;;;;;;;19.40;10.18;;;;;;;;;;4969953;28;20019;-56
2023/08/06 07:06:09;;;;;;;19.55;10.02;;;;;;;;;;4969865;28;20023;-55
2023/08/06 07:08:35;;;;;;;17.73;9.43;;;;;;;;;;4969882;28;20055;-57
2023/08/06 07:11:05;;;;;;;18.52;9.10;;;;;;;;;;4967977;28;20471;-55
2023/08/06 07:13:31;;;;;;;16.98;8.80;;;;;;;;;;4969816;28;20031;-53
2023/08/06 07:15:57;;;;;;;17.55;9.75;;;;;;;;;;4972791;28;20031;-55
2023/08/06 07:18:24;;;;;;;17.88;10.00;;;;;;;;;;4972645;28;20034;-56
2023/08/06 07:20:51;;;;;;;19.60;10.90;;;;;;;;;;4972987;28;20054;-55
2023/08/06 07:23:17;;;;;;;16.00;9.27;;;;;;;;;;4972926;28;20023;-54
2023/08/06 07:25:43;;;;;;;17.52;9.32;;;;;;;;;;4972612;28;20512;-56
2023/08/06 07:28:09;;;;;;;18.23;8.90;;;;;;;;;;4967681;28;20031;-51
2023/08/06 07:30:38;;;;;;;17.60;8.98;;;;;;;;;;4971714;28;20100;-58
2023/08/06 07:33:04;;;;;;;17.33;10.07;;;;;;;;;;4972612;28;20050;-58
2023/08/06 07:35:30;;;;;;;16.38;9.52;;;;;;;;;;4972537;28;20062;-56
2023/08/06 07:37:56;;;;;;;20.85;12.45;;;;;;;;;;4972497;28;20046;-58
2023/08/06 07:40:22;;;;;;;16.85;9.55;;;;;;;;;;4971308;28;20023;-58
2023/08/06 07:42:48;;;;;;;19.48;10.20;;;;;;;;;;4972731;28;20427;-58
2023/08/06 07:45:14;;;;;;;16.98;9.30;;;;;;;;;;4972370;28;20019;-57
2023/08/06 07:47:41;;;;;;;17.17;9.82;;;;;;;;;;4971158;28;20103;-56
2023/08/06 07:50:07;;;;;;;15.95;9.20;;;;;;;;;;4972383;28;20053;-57
2023/08/06 07:52:33;;;;;;;18.40;9.70;;;;;;;;;;4972292;28;20026;-58
2023/08/06 07:55:00;;;;;;;17.27;8.65;;;;;;;;;;4972070;28;20019;-55
2023/08/06 07:57:26;;;;;;;15.45;8.85;;;;;;;;;;4972361;28;20022;-56
2023/08/06 07:59:53;;;;;;;15.13;8.48;;;;;;;;;;4972303;28;20011;-62
2023/08/06 08:02:19;;;;;;;16.25;9.00;;;;;;;;;;4971153;28;20023;-60
2023/08/06 08:04:47;;;;;;;15.63;8.77;;;;;;;;;;4972123;28;20100;-59
2023/08/06 08:07:13;;;;;;;17.15;8.55;;;;;;;;;;4971011;28;20460;-62
2023/08/06 08:09:39;;;;;;;15.00;8.80;;;;;;;;;;4972239;28;20023;-60
2023/08/06 08:12:05;;;;;;;15.73;8.52;;;;;;;;;;4970878;28;20437;-61
2023/08/06 08:14:35;;;;;;;15.65;8.52;;;;;;;;;;4972009;28;20027;-62
2023/08/06 08:17:02;;;;;;;15.27;8.88;;;;;;;;;;4970686;28;20164;-61
2023/08/06 08:19:28;;;;;;;14.88;8.18;;;;;;;;;;4971995;28;20037;-60
2023/08/06 08:21:54;;;;;;;14.68;8.48;;;;;;;;;;4972005;28;20023;-60
2023/08/06 08:24:23;;;;;;;16.45;8.27;;;;;;;;;;4970828;28;20057;-62
2023/08/06 08:26:49;;;;;;;15.13;8.30;;;;;;;;;;4970622;28;20069;-60
2023/08/06 08:29:15;;;;;;;16.45;8.57;;;;;;;;;;4970076;28;20030;-59
2023/08/06 08:31:41;;;;;;;17.05;8.80;;;;;;;;;;4971179;28;20061;-60
2023/08/06 08:34:07;;;;;;;14.90;8.60;;;;;;;;;;4971320;28;20336;-64
2023/08/06 08:36:33;;;;;;;17.67;9.20;;;;;;;;;;4971385;28;20015;-61
2023/08/06 08:38:59;;;;;;;18.75;8.73;;;;;;;;;;4971119;28;20046;-61
2023/08/06 08:41:25;;;;;;;16.60;8.13;;;;;;;;;;4971584;28;20117;-63
2023/08/06 08:43:52;;;;;;;15.00;8.55;;;;;;;;;;4971645;28;20026;-65
2023/08/06 08:46:19;;;;;;;15.00;8.82;;;;;;;;;;4971412;28;20026;-62
2023/08/06 08:48:45;;;;;;;18.58;9.52;;;;;;;;;;4971541;28;20031;-61
2023/08/06 08:51:12;;;;;;;15.30;8.50;;;;;;;;;;4969862;28;20035;-62
2023/08/06 08:53:39;;;;;;;14.90;8.90;;;;;;;;;;4969525;28;20034;-61
2023/08/06 08:56:05;;;;;;;16.33;8.88;;;;;;;;;;4970714;28;20026;-62
2023/08/06 08:58:31;;;;;;;14.80;8.27;;;;;;;;;;4970987;28;20031;-61
2023/08/06 09:00:58;;;;;;;16.08;8.73;;;;;;;;;;4969190;28;20432;-60
2023/08/06 09:03:24;;;;;;;16.35;8.98;;;;;;;;;;4970192;28;20076;-55
2023/08/06 09:05:52;;;;;;;15.50;8.13;;;;;;;;;;4971144;28;20482;-54
2023/08/06 09:08:19;;;;;;;14.73;8.40;;;;;;;;;;4971191;28;20027;-56
2023/08/06 09:10:46;;;;;;;15.88;8.27;;;;;;;;;;4969898;28;20035;-56
2023/08/06 09:13:13;;;;;;;15.68;8.23;;;;;;;;;;4971215;28;20065;-54
2023/08/06 09:15:39;;;;;;;15.50;8.75;;;;;;;;;;4969730;28;20034;-56
2023/08/06 09:18:12;;;;;;;14.88;8.35;;;;;;;;;;4971329;28;20031;-56
2023/08/06 09:20:41;;;;;;;15.35;8.00;;;;;;;;;;4970092;28;20061;-54
2023/08/06 09:23:09;;;;;;;16.85;9.38;;;;;;;;;;4969818;28;20019;-58
2023/08/06 09:25:37;;;;;;;17.77;9.52;;;;;;;;;;4970882;28;20451;-53
2023/08/06 09:28:03;;;;;;;16.75;9.20;;;;;;;;;;4969765;28;20592;-55
2023/08/06 09:30:31;;;;;;;16.45;9.73;;;;;;;;;;4969830;28;20026;-57
2023/08/06 09:32:57;;;;;;;18.60;9.57;;;;;;;;;;4969718;28;20114;-57
2023/08/06 09:35:23;;;;;;;16.20;9.23;;;;;;;;;;4969260;28;20035;-55
2023/08/06 09:37:49;;;;;;;16.20;9.80;;;;;;;;;;4969452;28;20038;-57
2023/08/06 09:40:25;;;;;;;16.55;9.63;;;;;;;;;;4969536;28;20138;-56
2023/08/06 09:42:51;;;;;;;16.75;9.77;;;;;;;;;;4970884;28;20479;-58
2023/08/06 09:45:17;;;;;;;16.05;10.05;;;;;;;;;;4969375;28;20031;-56
2023/08/06 09:47:43;;;;;;;15.02;9.40;;;;;;;;;;4969434;28;20621;-57
2023/08/06 09:50:18;;;;;;;16.55;10.25;;;;;;;;;;4969310;28;20058;-57
2023/08/06 09:52:44;;;;;;;16.25;9.65;;;;;;;;;;4969173;28;20044;-57
2023/08/06 09:55:12;;;;;;;17.15;9.30;;;;;;;;;;4968964;28;20019;-55
2023/08/06 09:57:39;;;;;;;15.23;9.02;;;;;;;;;;4969256;28;20015;-57
2023/08/06 10:00:08;;;;;;;15.35;8.50;;;;;;;;;;4969160;28;20080;-56
2023/08/06 10:02:34;;;;;;;14.75;8.57;;;;;;;;;;4969253;28;20105;-55
2023/08/06 10:05:00;;;;;;;16.02;9.70;;;;;;;;;;4970137;28;20080;-57
2023/08/06 10:07:27;;;;;;;15.75;9.10;;;;;;;;;;4969138;28;20023;-54
2023/08/06 10:09:53;;;;;;;15.15;8.88;;;;;;;;;;4968989;28;20061;-54
2023/08/06 10:12:19;;;;;;;17.95;8.57;;;;;;;;;;4968974;28;20066;-58
2023/08/06 10:14:46;;;;;;;15.68;9.02;;;;;;;;;;4968845;28;20034;-57
2023/08/06 10:17:12;;;;;;;14.68;8.90;;;;;;;;;;4970219;28;20031;-57
2023/08/06 10:19:38;;;;;;;15.50;9.35;;;;;;;;;;4969218;28;20023;-56
2023/08/06 10:22:13;;;;;;;14.95;8.80;;;;;;;;;;4968916;28;20035;-57
2023/08/06 10:24:50;;;;;;;14.52;8.55;;;;;;;;;;4968711;28;20030;-58
2023/08/06 10:27:34;;;;;;;16.83;9.00;;;;;;;;;;4968901;28;20023;-53
2023/08/06 10:30:19;;;;;;;15.00;8.85;;;;;;;;;;4970019;28;20094;-56
2023/08/06 10:32:49;;;;;;;14.65;9.35;;;;;;;;;;4964615;28;20019;-55
2023/08/06 10:35:50;;;;;;;16.40;9.40;;;;;;;;;;4966837;28;20474;-56
2023/08/06 10:38:21;;;;;;;15.10;8.57;;;;;;;;;;5003978;28;20049;-55
2023/08/06 10:40:50;;;;;;;14.88;9.10;;;;;;;;;;4974988;28;20473;-56
2023/08/06 10:43:26;;;;;;;15.32;9.27;;;;;;;;;;4966641;28;20026;-57
2023/08/06 10:45:52;;;;;;;15.77;8.80;;;;;;;;;;4969026;28;20076;-56
2023/08/06 10:48:30;;;;;;;15.60;9.40;;;;;;;;;;4968139;28;20015;-58
2023/08/06 10:50:56;;;;;;;14.93;9.23;;;;;;;;;;4966666;28;20015;-56
2023/08/06 10:53:22;;;;;;;16.20;9.10;;;;;;;;;;4968022;28;20521;-58
2023/08/06 10:55:48;;;;;;;14.38;8.50;;;;;;;;;;4969017;28;20030;-56
2023/08/06 10:58:16;;;;;;;14.35;8.70;;;;;;;;;;4969736;28;20530;-57
2023/08/06 11:00:42;;;;;;;14.35;8.65;;;;;;;;;;4969900;28;20110;-57
2023/08/06 11:03:09;;;;;;;16.25;9.35;;;;;;;;;;4968013;28;20014;-61
2023/08/06 11:05:36;;;;;;;15.02;9.20;;;;;;;;;;4969221;28;20734;-56
2023/08/06 11:08:02;;;;;;;15.77;8.80;;;;;;;;;;4969145;28;20031;-52
2023/08/06 11:10:28;;;;;;;14.85;8.80;;;;;;;;;;4967608;28;20015;-53
2023/08/06 11:12:54;;;;;;;14.30;8.50;;;;;;;;;;4969388;28;20030;-53
2023/08/06 11:15:23;;;;;;;14.32;8.75;;;;;;;;;;4969187;28;20023;-52
2023/08/06 11:17:50;;;;;;;16.88;8.93;;;;;;;;;;4969293;28;20035;-53
2023/08/06 11:20:17;;;;;;;15.02;9.05;;;;;;;;;;4969173;28;20027;-54
2023/08/06 11:22:43;;;;;;;17.23;9.57;;;;;;;;;;4969254;28;20054;-52
2023/08/06 11:25:09;;;;;;;15.48;9.30;;;;;;;;;;4968988;28;20058;-54
2023/08/06 11:27:35;;;;;;;14.60;8.20;;;;;;;;;;4969121;28;20104;-50
2023/08/06 11:30:01;;;;;;;15.75;9.40;;;;;;;;;;4969301;28;20554;-52
2023/08/06 11:32:27;;;;;;;18.30;9.60;;;;;;;;;;4969184;28;20031;-52
2023/08/06 11:34:57;;;;;;;16.65;9.40;;;;;;;;;;4968857;28;20382;-50
2023/08/06 11:37:24;;;;;;;15.05;9.48;;;;;;;;;;4968644;28;20100;-53
2023/08/06 11:39:50;;;;;;;17.42;9.30;;;;;;;;;;4970358;28;20058;-53
2023/08/06 11:42:16;;;;;;;16.67;9.50;;;;;;;;;;4968404;28;20140;-53
2023/08/06 11:44:45;;;;;;;15.38;9.10;;;;;;;;;;4968546;28;20061;-48
2023/08/06 11:47:12;;;;;;;16.48;9.20;;;;;;;;;;4968774;28;20451;-49
2023/08/06 11:49:49;;;;;;;15.75;9.43;;;;;;;;;;4967174;28;20027;-52
2023/08/06 11:52:19;;;;;;;15.10;9.55;;;;;;;;;;4966124;28;20023;-55
2023/08/06 11:54:45;;;;;;;15.70;9.95;;;;;;;;;;4968740;28;20030;-54
2023/08/06 11:57:11;;;;;;;16.00;10.45;;;;;;;;;;4968136;28;20026;-54
2023/08/06 11:59:38;;;;;;;14.80;9.90;;;;;;;;;;4969681;28;20023;-55
2023/08/06 12:02:05;;;;;;;15.30;10.30;;;;;;;;;;4971661;28;20057;-51
2023/08/06 12:04:32;;;;;;;15.18;10.48;;;;;;;;;;4971661;28;20518;-56
2023/08/06 12:07:06;;;;;;;15.10;10.18;;;;;;;;;;4972082;28;20015;-52
2023/08/06 12:09:32;;;;;;;17.02;10.32;;;;;;;;;;4969981;28;20478;-55
2023/08/06 12:11:58;;;;;;;16.30;10.93;;;;;;;;;;4971589;28;20109;-58
2023/08/06 12:14:24;;;;;;;15.85;11.15;;;;;;;;;;4971910;28;20102;-56
2023/08/06 12:16:50;;;;;;;15.80;11.05;;;;;;;;;;4972165;28;20502;-53
2023/08/06 12:19:16;;;;;;;15.65;11.00;;;;;;;;;;4970423;28;20027;-53
2023/08/06 12:21:42;;;;;;;16.33;11.43;;;;;;;;;;4971628;28;20041;-52
2023/08/06 12:24:09;;;;;;;16.13;10.73;;;;;;;;;;4970198;28;20015;-55
2023/08/06 12:26:35;;;;;;;16.47;11.37;;;;;;;;;;4971378;28;20019;-52
2023/08/06 12:29:01;;;;;;;17.70;11.27;;;;;;;;;;4970139;28;20316;-50
2023/08/06 12:31:27;;;;;;;15.98;11.48;;;;;;;;;;4970461;28;20026;-51
2023/08/06 12:33:53;;;;;;;17.70;11.20;;;;;;;;;;4969993;28;20034;-53
2023/08/06 12:36:19;;;;;;;16.25;11.50;;;;;;;;;;4971424;28;20057;-56
2023/08/06 12:38:45;;;;;;;18.42;11.32;;;;;;;;;;4970994;28;20503;-53
2023/08/06 12:41:11;;;;;;;17.15;11.02;;;;;;;;;;4971468;28;20081;-52
2023/08/06 12:43:37;;;;;;;16.00;10.77;;;;;;;;;;4971677;28;20054;-56
2023/08/06 12:46:04;;;;;;;16.27;10.32;;;;;;;;;;4970019;28;20015;-55
2023/08/06 12:48:30;;;;;;;15.65;10.15;;;;;;;;;;4970861;28;20113;-54
2023/08/06 12:50:56;;;;;;;16.20;10.18;;;;;;;;;;4971073;28;20121;-52
2023/08/06 12:53:23;;;;;;;16.25;10.18;;;;;;;;;;4970384;28;20467;-55
2023/08/06 12:55:49;;;;;;;15.35;9.57;;;;;;;;;;4627416;28;10000366;-51
2023/08/06 12:58:15;;;;;;;15.93;9.80;;;;;;;;;;4973053;28;21057;-57
2023/08/06 13:00:41;;;;;;;16.30;10.20;;;;;;;;;;4978798;28;20031;-56
2023/08/06 13:03:07;;;;;;;15.38;10.00;;;;;;;;;;4967937;28;20030;-55
2023/08/06 13:05:33;;;;;;;16.25;9.88;;;;;;;;;;4967226;28;20532;-56
2023/08/06 13:07:59;;;;;;;17.30;10.77;;;;;;;;;;4967098;28;20481;-51
2023/08/06 13:10:27;;;;;;;18.35;10.20;;;;;;;;;;4966351;28;20616;-54
2023/08/06 13:12:53;;;;;;;14.77;9.45;;;;;;;;;;4967935;28;20091;-52
2023/08/06 13:15:20;;;;;;;15.50;9.88;;;;;;;;;;4967211;28;20491;-56
2023/08/06 13:17:46;;;;;;;14.80;9.48;;;;;;;;;;4966511;28;20027;-58
2023/08/06 13:20:12;;;;;;;15.40;10.10;;;;;;;;;;4967937;28;20625;-53
2023/08/06 13:22:38;;;;;;;18.90;9.77;;;;;;;;;;4966817;28;20131;-52
2023/08/06 13:25:04;;;;;;;14.95;9.48;;;;;;;;;;4967614;28;20047;-52
2023/08/06 13:27:31;;;;;;;17.33;9.60;;;;;;;;;;4969202;28;20034;-52
2023/08/06 13:29:57;;;;;;;15.40;9.65;;;;;;;;;;4970847;28;20030;-57
2023/08/06 13:32:23;;;;;;;16.63;9.85;;;;;;;;;;4970650;28;20030;-52
2023/08/06 13:34:49;;;;;;;17.38;10.38;;;;;;;;;;4970563;28;20030;-54
2023/08/06 13:37:15;;;;;;;16.63;10.18;;;;;;;;;;4970515;28;20394;-53
2023/08/06 13:39:41;;;;;;;16.45;9.90;;;;;;;;;;4626307;28;10000158;-52
2023/08/06 13:42:07;;;;;;;18.83;11.25;;;;;;;;;;4965226;28;20027;-56
2023/08/06 13:44:35;;;;;;;17.98;11.13;;;;;;;;;;4967352;28;20031;-55
2023/08/06 13:47:01;;;;;;;;;;;;;;;;;;4969099;28;20018;-56
2023/08/06 13:49:27;;;;;;;17.75;11.13;;;;;;;;;;4968741;28;19902;-50
2023/08/06 13:51:53;;;;;;;16.83;9.70;;;;;;;;;;4969318;28;20363;-51
2023/08/06 13:54:21;;;;;;;15.52;9.77;;;;;;;;;;4970201;28;20027;-56
2023/08/06 13:56:47;;;;;;;15.43;9.60;;;;;;;;;;4625437;28;9999637;-56
2023/08/06 13:59:14;;;;;;;16.88;9.68;;;;;;;;;;4967393;28;20026;-54
2023/08/06 14:01:40;;;;;;;15.00;9.07;;;;;;;;;;4967615;28;20015;-54
2023/08/06 14:04:06;;;;;;;15.75;9.23;;;;;;;;;;4966113;28;20096;-52
2023/08/06 14:06:32;;;;;;;15.93;9.55;;;;;;;;;;4623847;28;10000500;-54
2023/08/06 14:08:58;;;;;;;15.88;9.32;;;;;;;;;;4967846;28;20038;-51
2023/08/06 14:11:24;;;;;;;15.73;9.40;;;;;;;;;;4624557;28;10000280;-52
2023/08/06 14:13:50;;;;;;;17.13;9.20;;;;;;;;;;4967744;28;20011;-51
2023/08/06 14:16:16;;;;;;;15.13;9.18;;;;;;;;;;4966915;28;20022;-56
2023/08/06 14:18:42;;;;;;;15.10;9.52;;;;;;;;;;4967276;28;20023;-55